Weather History for Chehalis, WA

Change the Weather History Date:

Tuesday, July 16, 2013

  Actual Average (KOLM) Record (KOLM)
Temperature  
Mean Temperature 68 °F 64 °F  
Max Temperature 84 °F 77 °F 98 °F (1979)
Min Temperature 51 °F 51 °F 42 °F (1968)
Degree Days  
Heating Degree Days 0 2  
Month to date heating degree days 50  
Since 1 June heating degree days 238  
Since 1 July heating degree days 50  
Cooling Degree Days 2 1  
Month to date cooling degree days 16  
Year to date cooling degree days 30  
Since 1 June cooling degree days 27  
Growing Degree Days 18 (Base 50)    
Moisture  
Dew Point 54 °F    
Average Humidity 60    
Maximum Humidity 94    
Minimum Humidity 39    
Precipitation  
Precipitation 0.00 in 0.01 in 0.51 in (1978)
Month to date precipitation 0.40  
Year to date precipitation 26.43  
Sea Level Pressure  
Sea Level Pressure 29.87 in    
Wind  
Wind Speed 3 mph (North)    
Max Wind Speed 12 mph    
Max Gust Speed -    
Visibility 10 miles    
Events      
T = Trace of Precipitation, MM = Missing Value Source: NWS Daily Summary

Daily Weather History Graph

Daily Weather History Graph

Search for Another Location

Airport:

Trip Planner

Search our weather history database for the weather conditions in past years. The results will help you decide how hot, cold, wet, or windy it might be!

Date:

Astronomy

Jul. 16, 2013 Rise Set
Actual Time 5:34 AM PDT 9:00 PM PDT
Civil Twilight 4:57 AM PDT 9:38 PM PDT
Nautical Twilight 4:07 AM PDT 10:27 PM PDT
Astronomical Twilight 3:03 AM PDT 11:31 PM PDT
Moon 2:40 PM PDT (7/16) 12:18 AM PDT (7/16)
Length of Visible Light 16h 41m
Length of Day
15h 26m
First Quarter, 57% of the Moon is Illuminated
Jul 16
First Quarter
Jul 22
Full
Jul 29
Last Quarter
Aug 6
New
Aug 14
First Quarter

Hourly Weather History & Observations

Time (PDT) Temp. Heat Index Dew Point Humidity Pressure Visibility Wind Dir Wind Speed Gust Speed Precip Events Conditions
12:15 AM 62.6 °F - 51.8 °F 68% 29.90 in 10.0 mi Calm Calm - N/A   Clear
12:35 AM 59.0 °F - 51.8 °F 77% 29.90 in 10.0 mi Calm Calm - N/A   Clear
12:55 AM 60.8 °F - 48.2 °F 63% 29.90 in 10.0 mi North 3.5 mph - N/A   Clear
1:15 AM 60.8 °F - 48.2 °F 63% 29.90 in 10.0 mi North 4.6 mph - N/A   Clear
1:35 AM 60.8 °F - 48.2 °F 63% 29.89 in 10.0 mi Calm Calm - N/A   Clear
1:55 AM 59.0 °F - 48.2 °F 67% 29.89 in 10.0 mi North 3.5 mph - N/A   Clear
2:15 AM 59.0 °F - 48.2 °F 67% 29.90 in 10.0 mi Calm Calm - N/A   Clear
2:35 AM 55.4 °F - 50.0 °F 82% 29.89 in 10.0 mi Calm Calm - N/A   Clear
2:55 AM 55.4 °F - 50.0 °F 82% 29.89 in 10.0 mi Calm Calm - N/A   Clear
3:15 AM 55.4 °F - 50.0 °F 82% 29.88 in 10.0 mi NNE 6.9 mph - N/A   Clear
3:35 AM 55.4 °F - 48.2 °F 77% 29.88 in 10.0 mi NNE 5.8 mph - N/A   Clear
3:55 AM 55.4 °F - 50.0 °F 82% 29.88 in 10.0 mi Calm Calm - N/A   Clear
4:15 AM 53.6 °F - 50.0 °F 88% 29.88 in 10.0 mi Calm Calm - N/A   Clear
4:35 AM 53.6 °F - 50.0 °F 88% 29.88 in 10.0 mi Calm Calm - N/A   Clear
4:55 AM 53.6 °F - 48.2 °F 82% 29.88 in 10.0 mi Calm Calm - N/A   Clear
5:15 AM 51.8 °F - 48.2 °F 88% 29.88 in 10.0 mi Calm Calm - N/A   Clear
5:35 AM 51.8 °F - 50.0 °F 94% 29.87 in 10.0 mi Calm Calm - N/A   Clear
5:55 AM 53.6 °F - 48.2 °F 82% 29.87 in 10.0 mi Calm Calm - N/A   Clear
6:15 AM 53.6 °F - 48.2 °F 82% 29.88 in 10.0 mi Calm Calm - N/A   Clear
6:35 AM 55.4 °F - 50.0 °F 82% 29.88 in 10.0 mi Calm Calm - N/A   Clear
6:55 AM 57.2 °F - 50.0 °F 77% 29.88 in 9.0 mi Calm Calm - N/A   Clear
7:15 AM 59.0 °F - 51.8 °F 77% 29.87 in 5.0 mi Calm Calm - N/A   Haze
7:35 AM 62.6 °F - 53.6 °F 72% 29.87 in 5.0 mi Calm Calm - N/A   Haze
7:55 AM 66.2 °F - 51.8 °F 60% 29.86 in 10.0 mi North 5.8 mph - N/A   Clear
8:15 AM 68.0 °F - 51.8 °F 56% 29.87 in 10.0 mi North 6.9 mph - N/A   Clear
8:35 AM 69.8 °F - 51.8 °F 53% 29.87 in 10.0 mi North 4.6 mph - N/A   Clear
8:55 AM 71.6 °F - 53.6 °F 53% 29.87 in 9.0 mi North 5.8 mph - N/A   Clear
9:15 AM 71.6 °F - 53.6 °F 53% 29.88 in 10.0 mi NNW 6.9 mph - N/A   Clear
9:35 AM 73.4 °F - 53.6 °F 50% 29.88 in 10.0 mi NNW 4.6 mph - N/A   Clear
9:55 AM 75.2 °F - 53.6 °F 47% 29.87 in 10.0 mi North 5.8 mph - N/A   Clear
10:15 AM 71.6 °F - 55.4 °F 57% 29.85 in 10.0 mi North 3.5 mph - N/A   Clear
10:35 AM 73.4 °F - 55.4 °F 53% 29.86 in 10.0 mi NNW 4.6 mph - N/A   Clear
10:55 AM 75.2 °F - 55.4 °F 50% 29.87 in 8.0 mi North 5.8 mph - N/A   Clear
11:15 AM 77.0 °F - 55.4 °F 47% 29.88 in 10.0 mi North 4.6 mph - N/A   Clear
11:35 AM 78.8 °F - 55.4 °F 44% 29.88 in 10.0 mi NW 3.5 mph - N/A   Clear
11:55 AM 77.0 °F - 55.4 °F 47% 29.87 in 10.0 mi NNE 8.1 mph - N/A   Clear
12:15 PM 77.0 °F - 55.4 °F 47% 29.86 in 10.0 mi North 4.6 mph - N/A   Clear
12:35 PM 80.6 °F 80.5 °F 55.4 °F 42% 29.85 in 10.0 mi North 8.1 mph - N/A   Clear
1:35 PM 80.6 °F 80.8 °F 57.2 °F 45% 29.85 in 10.0 mi NNE 8.1 mph - N/A   Clear
1:55 PM 80.6 °F 80.8 °F 57.2 °F 45% 29.84 in 10.0 mi North 3.5 mph - N/A   Clear
2:15 PM 80.6 °F 80.8 °F 57.2 °F 45% 29.85 in 10.0 mi NNW 4.6 mph - N/A   Clear
2:35 PM 82.4 °F 82.0 °F 57.2 °F 42% 29.83 in 10.0 mi North 4.6 mph - N/A   Clear
2:55 PM 80.6 °F 80.8 °F 57.2 °F 45% 29.85 in 10.0 mi NNE 5.8 mph - N/A   Clear
3:15 PM 80.6 °F 80.8 °F 57.2 °F 45% 29.85 in 10.0 mi Calm Calm - N/A   Clear
3:35 PM 78.8 °F - 59.0 °F 51% 29.83 in 10.0 mi Calm Calm - N/A   Clear
3:55 PM 78.8 °F - 57.2 °F 47% 29.83 in 10.0 mi North 3.5 mph - N/A   Clear
4:15 PM 80.6 °F 80.8 °F 57.2 °F 45% 29.82 in 10.0 mi North 5.8 mph - N/A   Clear
4:35 PM 80.6 °F 80.5 °F 55.4 °F 42% 29.82 in 10.0 mi NNE 6.9 mph - N/A   Clear
4:55 PM 82.4 °F 81.7 °F 55.4 °F 39% 29.81 in 10.0 mi NNE 11.5 mph - N/A   Clear
5:15 PM 82.4 °F 81.7 °F 55.4 °F 39% 29.82 in 10.0 mi NNE 8.1 mph - N/A   Clear
5:35 PM 84.2 °F 83.5 °F 57.2 °F 40% 29.82 in 10.0 mi NNE 6.9 mph - N/A   Clear
5:55 PM 84.2 °F 83.5 °F 57.2 °F 40% 29.82 in 10.0 mi North 4.6 mph - N/A   Clear
6:15 PM 84.2 °F 83.5 °F 57.2 °F 40% 29.83 in 10.0 mi NNW 4.6 mph - N/A   Clear
6:35 PM 84.2 °F 83.5 °F 57.2 °F 40% 29.84 in 10.0 mi Calm Calm - N/A   Clear
6:55 PM 84.2 °F 83.5 °F 57.2 °F 40% 29.84 in 10.0 mi NNW 4.6 mph - N/A   Clear
7:15 PM 82.4 °F 82.0 °F 57.2 °F 42% 29.84 in 10.0 mi WNW 3.5 mph - N/A   Clear
7:35 PM 80.6 °F 80.8 °F 57.2 °F 45% 29.84 in 10.0 mi Calm Calm - N/A   Clear
7:55 PM 80.6 °F 80.8 °F 57.2 °F 45% 29.84 in 10.0 mi North 3.5 mph - N/A   Clear
8:15 PM 77.0 °F - 55.4 °F 47% 29.85 in 10.0 mi Calm Calm - N/A   Clear
8:35 PM 77.0 °F - 59.0 °F 54% 29.86 in 10.0 mi WSW 3.5 mph - N/A   Clear
8:55 PM 75.2 °F - 57.2 °F 53% 29.88 in 10.0 mi SW 3.5 mph - N/A   Clear
9:15 PM 73.4 °F - 59.0 °F 61% 29.88 in 9.0 mi SW 3.5 mph - N/A   Clear
9:35 PM 71.6 °F - 59.0 °F 64% 29.89 in 10.0 mi Calm Calm - N/A   Clear
9:55 PM 71.6 °F - 60.8 °F 69% 29.89 in 7.0 mi NE 5.8 mph - N/A   Clear
10:15 PM 71.6 °F - 59.0 °F 64% 29.89 in 10.0 mi NNE 8.1 mph - N/A   Scattered Clouds
10:35 PM 71.6 °F - 59.0 °F 64% 29.92 in 10.0 mi West 5.8 mph - N/A   Mostly Cloudy
10:55 PM 68.0 °F - 59.0 °F 73% 29.92 in 10.0 mi WNW 4.6 mph - N/A   Partly Cloudy
11:15 PM 68.0 °F - 59.0 °F 73% 29.94 in 8.0 mi SSW 3.5 mph - N/A   Clear
11:35 PM 66.2 °F - 57.2 °F 73% 29.95 in 9.0 mi Calm Calm - N/A   Clear
11:55 PM 66.2 °F - 59.0 °F 78% 29.95 in 6.0 mi Calm Calm - N/A   Haze